Time;durP1;ratioP1;P1;durP2;ratioP2;P2;SDS_P1;SDS_P2;PMS_P1;PMS_P2;Temp;Humidity;BMP_temperature;BMP_pressure;BME280_temperature;BME280_humidity;BME280_pressure;Samples;Min_cycle;Max_cycle;Signal;HPM_P1;HPM_P2
2022/09/14 00:04:04;;;;;;;22.93;4.10;;;;;;;20.44;100.00;100736.72;6156757;23;20527;-95
2022/09/14 00:06:37;;;;;;;19.33;4.60;;;;;;;20.44;100.00;100728.38;6106861;23;20484;-95
2022/09/14 00:12:47;;;;;;;31.73;5.80;;;;;;;20.42;100.00;100730.56;6155602;23;20409;-94
2022/09/14 00:15:45;;;;;;;19.33;3.87;;;;;;;20.45;100.00;100745.88;6082993;23;20911;-94
2022/09/14 00:18:52;;;;;;;21.53;5.07;;;;;;;20.45;100.00;100734.78;6106127;23;20413;-95
2022/09/14 00:21:25;;;;;;;29.07;4.80;;;;;;;20.46;100.00;100726.19;6131244;23;20417;-94
2022/09/14 00:24:12;;;;;;;32.30;4.07;;;;;;;20.48;100.00;100726.78;6083391;23;20972;-94
2022/09/14 00:27:09;;;;;;;21.03;3.90;;;;;;;20.50;100.00;100726.50;6106398;23;20750;-94
2022/09/14 00:33:23;;;;;;;18.83;4.40;;;;;;;20.46;100.00;100731.75;6156697;23;20778;-94
2022/09/14 00:39:59;;;;;;;33.73;4.30;;;;;;;20.39;100.00;100720.03;6156309;23;20428;-94
2022/09/14 00:46:02;;;;;;;20.77;4.60;;;;;;;20.53;100.00;100721.28;6156799;23;20433;-94
2022/09/14 00:48:43;;;;;;;23.10;4.30;;;;;;;20.52;100.00;100714.06;6106410;23;20404;-95
2022/09/14 00:51:10;;;;;;;25.23;5.70;;;;;;;20.58;100.00;100707.47;6082360;23;20408;-94
2022/09/14 00:53:49;;;;;;;21.03;4.50;;;;;;;20.59;100.00;100698.00;6083122;23;20795;-95
2022/09/14 00:57:05;;;;;;;19.43;3.63;;;;;;;20.65;100.00;100710.84;6083229;23;20421;-94
2022/09/14 01:03:27;;;;;;;27.47;4.90;;;;;;;20.64;100.00;100711.97;6156398;23;20425;-94
2022/09/14 01:10:00;;;;;;;18.13;3.67;;;;;;;20.47;100.00;100693.72;6155310;23;20916;-95
2022/09/14 01:24:10;;;;;;;23.37;4.27;;;;;;;20.55;100.00;100719.09;6128506;23;20990;-96
2022/09/14 01:30:32;;;;;;;29.13;3.97;;;;;;;20.51;100.00;100701.28;6128588;23;20441;-94
2022/09/14 01:33:56;;;;;;;16.83;3.80;;;;;;;20.51;100.00;100711.53;6056047;23;20420;-94
2022/09/14 01:44:04;;;;;;;16.47;3.57;;;;;;;20.41;100.00;100690.03;6127841;23;20814;-96
2022/09/14 01:46:44;;;;;;;21.83;4.13;;;;;;;20.39;100.00;100695.03;6102295;23;20421;-94
2022/09/14 01:53:21;;;;;;;17.53;4.00;;;;;;;20.31;100.00;100687.13;6128579;23;20406;-94
2022/09/14 02:03:28;;;;;;;21.40;4.37;;;;;;;20.18;100.00;100687.53;6128264;23;20369;-93
2022/09/14 02:06:22;;;;;;;22.07;4.07;;;;;;;20.13;100.00;100685.50;6102846;23;20414;-94
2022/09/14 02:09:45;;;;;;;22.40;3.63;;;;;;;20.10;100.00;100679.63;6102551;23;20417;-95
2022/09/14 02:12:13;;;;;;;17.80;2.80;;;;;;;20.06;100.00;100670.97;6102403;23;20418;-93
2022/09/14 02:14:42;;;;;;;17.33;2.50;;;;;;;19.98;100.00;100675.06;6085332;23;20532;-95
2022/09/14 02:17:28;;;;;;;15.30;3.00;;;;;;;20.00;100.00;100675.66;6107868;23;20409;-96
2022/09/14 02:20:22;;;;;;;13.70;2.90;;;;;;;19.95;100.00;100669.19;6132202;23;20985;-93
2022/09/14 02:22:50;;;;;;;19.40;3.20;;;;;;;19.94;100.00;100673.91;6131371;23;20413;-93
2022/09/14 02:25:32;;;;;;;20.13;3.70;;;;;;;19.91;100.00;100670.78;6108080;23;20429;-96
2022/09/14 02:28:13;;;;;;;15.53;3.10;;;;;;;19.87;100.00;100670.47;6107395;23;20778;-94
2022/09/14 02:38:28;;;;;;;16.27;3.60;;;;;;;19.78;100.00;100672.03;6157521;23;20409;-93
2022/09/14 02:41:36;;;;;;;20.83;3.23;;;;;;;19.77;100.00;100677.81;6156254;23;20474;-96
2022/09/14 02:55:23;;;;;;;15.50;2.47;;;;;;;19.61;100.00;100657.38;6157543;23;20436;-95
2022/09/14 02:58:38;;;;;;;14.13;2.87;;;;;;;19.64;100.00;100656.81;6108631;23;20409;-96
2022/09/14 03:05:48;;;;;;;12.67;2.60;;;;;;;19.58;100.00;100668.97;6157714;23;20405;-93
2022/09/14 03:19:22;;;;;;;12.43;2.27;;;;;;;19.50;100.00;100666.59;6157249;23;20495;-94
2022/09/14 03:25:38;;;;;;;17.63;2.93;;;;;;;19.46;100.00;100662.63;6157576;23;20376;-93
2022/09/14 03:28:22;;;;;;;8.50;2.80;;;;;;;19.47;100.00;100667.06;6083716;23;20409;-95
2022/09/14 03:31:12;;;;;;;13.73;2.93;;;;;;;19.45;100.00;100669.25;6107753;23;20397;-93
2022/09/14 03:37:27;;;;;;;16.53;2.50;;;;;;;19.35;100.00;100663.56;6157326;23;20398;-93
2022/09/14 03:39:57;;;;;;;19.00;2.73;;;;;;;19.32;100.00;100670.47;6082470;23;20445;-94
2022/09/14 03:42:24;;;;;;;12.17;1.87;;;;;;;19.30;100.00;100669.88;6107257;23;20405;-93
2022/09/14 03:45:31;;;;;;;13.83;2.10;;;;;;;19.28;100.00;100667.34;6083036;23;20919;-94
2022/09/14 03:48:14;;;;;;;14.90;2.50;;;;;;;19.27;100.00;100665.69;6130997;23;20413;-94
2022/09/14 03:55:08;;;;;;;12.27;2.50;;;;;;;19.23;100.00;100670.06;6157099;23;20689;-93
2022/09/14 04:01:31;;;;;;;16.80;3.43;;;;;;;19.20;100.00;100673.34;6156800;23;20410;-95
2022/09/14 04:07:46;;;;;;;19.00;2.40;;;;;;;19.19;100.00;100673.59;6156852;23;20416;-93
2022/09/14 04:10:31;;;;;;;14.23;2.50;;;;;;;19.17;100.00;100679.38;6083268;23;20416;-93
2022/09/14 04:13:33;;;;;;;13.90;2.70;;;;;;;19.20;100.00;100670.56;6083743;23;20397;-93
2022/09/14 04:16:03;;;;;;;17.70;3.17;;;;;;;19.19;100.00;100666.13;6155218;23;20924;-93
2022/09/14 04:22:11;;;;;;;13.50;3.20;;;;;;;19.20;100.00;100659.50;6157031;23;20431;-93
2022/09/14 04:24:46;;;;;;;12.47;2.70;;;;;;;19.23;100.00;100660.91;6106599;23;20413;-94
2022/09/14 04:31:01;;;;;;;13.70;2.90;;;;;;;19.26;100.00;100646.53;6157243;23;20397;-93
2022/09/14 04:37:16;;;;;;;19.40;2.83;;;;;;;19.26;100.00;100647.38;6156668;23;20456;-93
2022/09/14 04:43:49;;;;;;;13.63;2.30;;;;;;;19.26;100.00;100658.44;6157100;23;20929;-92
2022/09/14 04:46:31;;;;;;;12.20;2.43;;;;;;;19.23;100.00;100650.66;6107891;23;20446;-94
2022/09/14 04:52:39;;;;;;;16.80;2.70;;;;;;;19.27;100.00;100665.69;6159102;23;20377;-92
2022/09/14 04:55:09;;;;;;;13.13;2.47;;;;;;;19.28;100.00;100664.59;6109009;23;20419;-93
2022/09/14 04:57:39;;;;;;;14.33;2.43;;;;;;;19.31;100.00;100663.25;6108947;23;20477;-95
2022/09/14 05:00:11;;;;;;;12.70;3.10;;;;;;;19.31;100.00;100663.25;6133841;23;20981;-95
2022/09/14 05:03:25;;;;;;;11.37;2.13;;;;;;;19.34;100.00;100662.75;6133920;23;20491;-93
2022/09/14 05:06:09;;;;;;;15.80;2.67;;;;;;;19.35;100.00;100660.81;6157774;23;20417;-94
2022/09/14 05:19:47;;;;;;;6.23;1.73;;;;;;;19.34;100.00;100668.28;6158370;23;20444;-93
2022/09/14 05:22:21;;;;;;;11.13;2.10;;;;;;;19.39;100.00;100675.84;6085373;23;20398;-95
2022/09/14 05:24:49;;;;;;;14.87;3.03;;;;;;;19.40;100.00;100674.75;6108483;23;20421;-93
2022/09/14 05:34:24;;;;;;;12.30;2.60;;;;;;;19.32;100.00;100682.38;6158459;23;20372;-94
2022/09/14 05:37:09;;;;;;;9.23;2.40;;;;;;;19.36;100.00;100687.44;6108993;23;20737;-95
2022/09/14 05:39:54;;;;;;;18.90;2.20;;;;;;;19.35;100.00;100691.28;6108233;23;20455;-94
2022/09/14 05:42:28;;;;;;;18.33;2.73;;;;;;;19.33;100.00;100683.22;6108903;23;20467;-94
2022/09/14 05:45:28;;;;;;;14.17;3.10;;;;;;;19.37;100.00;100692.72;6085396;23;20390;-95
2022/09/14 05:48:03;;;;;;;13.27;2.50;;;;;;;19.34;100.00;100690.47;6108118;23;20392;-93
2022/09/14 05:50:34;;;;;;;14.97;2.57;;;;;;;19.33;100.00;100695.16;6108842;23;20413;-93
2022/09/14 05:53:29;;;;;;;13.40;2.50;;;;;;;19.35;100.00;100697.69;6108555;23;20413;-93
2022/09/14 05:56:12;;;;;;;22.43;3.13;;;;;;;19.30;100.00;100684.56;6107976;23;20419;-94
2022/09/14 05:58:54;;;;;;;11.87;2.00;;;;;;;19.36;100.00;100687.44;6108279;23;20437;-95
2022/09/14 06:01:35;;;;;;;17.40;2.97;;;;;;;19.35;100.00;100692.13;6084501;23;20453;-94
2022/09/14 06:04:52;;;;;;;8.87;2.13;;;;;;;19.38;100.00;100696.34;6108090;23;20390;-95
2022/09/14 06:08:04;;;;;;;15.57;3.00;;;;;;;19.37;100.00;100697.44;6132389;23;20742;-95
2022/09/14 06:10:37;;;;;;;17.67;4.10;;;;;;;19.39;100.00;100698.03;6132222;23;20409;-92
2022/09/14 06:24:34;;;;;;;12.77;2.57;;;;;;;19.32;100.00;100706.50;6128244;23;20410;-93
2022/09/14 06:27:30;;;;;;;15.93;2.50;;;;;;;19.33;100.00;100710.94;6055661;23;20469;-92
2022/09/14 06:30:06;;;;;;;29.03;3.47;;;;;;;19.32;100.00;100710.09;6079282;23;20414;-93
2022/09/14 06:32:41;;;;;;;18.53;3.53;;;;;;;19.36;100.00;100710.44;6055923;23;20414;-95
2022/09/14 06:35:08;;;;;;;13.20;2.80;;;;;;;19.38;100.00;100710.19;6054943;23;20441;-92
2022/09/14 06:37:42;;;;;;;15.40;3.67;;;;;;;19.40;100.00;100711.63;6056897;23;20383;-93
2022/09/14 06:40:53;;;;;;;13.87;2.47;;;;;;;19.41;100.00;100706.94;6078823;23;20833;-92
2022/09/14 06:43:35;;;;;;;20.33;2.70;;;;;;;19.41;100.00;100709.69;6102430;23;20420;-93
2022/09/14 06:46:20;;;;;;;10.17;2.77;;;;;;;19.38;100.00;100711.03;6078992;23;20395;-94
2022/09/14 06:49:07;;;;;;;6.07;1.67;;;;;;;19.46;100.00;100712.53;6058954;23;20497;-93
2022/09/14 06:51:41;;;;;;;10.57;3.10;;;;;;;19.49;100.00;100717.56;6056330;23;20421;-90
2022/09/14 06:54:12;;;;;;;11.20;2.60;;;;;;;19.53;100.00;100716.84;6080512;23;20390;-92
2022/09/14 06:56:48;;;;;;;10.23;2.60;;;;;;;19.58;100.00;100718.88;6055740;23;20753;-91
2022/09/14 06:59:17;;;;;;;11.63;2.20;;;;;;;19.66;100.00;100721.19;6078256;23;20461;-93
2022/09/14 07:01:50;;;;;;;12.33;2.23;;;;;;;19.75;100.00;100724.38;6056789;23;20401;-92
2022/09/14 07:04:28;;;;;;;16.97;3.30;;;;;;;19.82;100.00;100719.50;6084289;23;20453;-89
2022/09/14 07:07:07;;;;;;;10.57;2.67;;;;;;;19.89;100.00;100726.53;6078679;23;20413;-94
2022/09/14 07:09:38;;;;;;;21.27;3.10;;;;;;;19.97;100.00;100731.66;6056687;23;20405;-90
2022/09/14 07:12:30;;;;;;;12.83;3.37;;;;;;;20.01;100.00;100729.22;6088077;23;20457;-90
2022/09/14 07:15:11;;;;;;;27.50;4.07;;;;;;;20.09;100.00;100733.47;6061362;23;20441;-89
2022/09/14 07:18:12;;;;;;;19.87;3.77;;;;;;;20.28;100.00;100740.38;6108491;23;20414;-89
2022/09/14 07:20:50;;;;;;;18.07;3.70;;;;;;;20.42;100.00;100738.91;6134173;23;20449;-90
2022/09/14 07:48:04;;;;;;;25.30;4.57;;;;;;;21.95;100.00;100749.50;5687869;25;20425;-88
2022/09/14 07:51:07;;;;;;;16.67;3.17;;;;;;;22.08;100.00;100749.09;5636037;25;20409;-88
2022/09/14 07:54:00;;;;;;;23.83;4.67;;;;;;;22.18;100.00;100759.41;5612308;25;20423;-89
2022/09/14 07:56:27;;;;;;;28.97;3.87;;;;;;;22.19;100.00;100773.06;5591385;25;20428;-89
2022/09/14 08:02:37;;;;;;;18.33;3.30;;;;;;;22.02;100.00;100766.84;5655561;25;20421;-90
2022/09/14 08:05:04;;;;;;;15.17;3.00;;;;;;;21.99;100.00;100773.75;5641791;25;20795;-90
2022/09/14 08:07:30;;;;;;;20.80;3.70;;;;;;;21.99;100.00;100765.41;5621540;25;20983;-89
2022/09/14 08:09:58;;;;;;;22.13;3.20;;;;;;;21.96;100.00;100759.53;5667193;25;20416;-91
2022/09/14 08:12:24;;;;;;;18.93;3.83;;;;;;;22.04;100.00;100767.44;5671873;25;20435;-91
2022/09/14 08:14:52;;;;;;;20.13;3.80;;;;;;;22.08;100.00;100776.91;5673322;24;20435;-90
2022/09/14 08:17:45;;;;;;;17.90;4.10;;;;;;;22.14;100.00;100770.25;5705712;25;20446;-92
2022/09/14 08:20:21;;;;;;;20.23;3.30;;;;;;;22.10;100.00;100768.31;5842731;24;20449;-91
2022/09/14 08:22:50;;;;;;;26.13;4.20;;;;;;;22.20;100.00;100779.47;5871071;23;20413;-93
2022/09/14 08:25:34;;;;;;;27.43;3.60;;;;;;;22.26;100.00;100772.84;6049825;23;20414;-92
2022/09/14 08:28:21;;;;;;;22.00;4.17;;;;;;;22.38;100.00;100770.66;6056133;23;20390;-96
2022/09/14 08:31:26;;;;;;;21.03;4.40;;;;;;;22.55;100.00;100781.59;6078357;23;20485;-92
2022/09/14 08:34:05;;;;;;;30.53;4.57;;;;;;;22.73;100.00;100779.16;6102523;23;20397;-92
2022/09/14 08:40:59;;;;;;;19.67;3.60;;;;;;;22.66;100.00;100800.88;6126998;23;20445;-96
2022/09/14 08:44:17;;;;;;;17.70;3.33;;;;;;;22.43;100.00;100797.72;6103604;23;20497;-92
2022/09/14 08:47:24;;;;;;;16.97;4.70;;;;;;;22.38;100.00;100810.50;6009278;23;20405;-95
2022/09/14 08:50:06;;;;;;;9.93;2.37;;;;;;;22.33;100.00;100812.41;6009605;23;20414;-91
2022/09/14 08:52:57;;;;;;;17.13;3.03;;;;;;;22.32;100.00;100810.75;5963572;23;20448;-91
2022/09/14 08:55:48;;;;;;;19.67;4.10;;;;;;;22.39;100.00;100814.13;5988556;23;20410;-91
2022/09/14 08:58:51;;;;;;;15.30;3.57;;;;;;;22.54;100.00;100813.34;5940547;23;20509;-91
2022/09/14 09:01:47;;;;;;;21.43;5.17;;;;;;;22.69;100.00;100825.44;5985668;23;20459;-92
2022/09/14 09:05:03;;;;;;;73.97;34.03;;;;;;;22.74;100.00;100827.38;5963536;23;20498;-91
2022/09/14 09:07:50;;;;;;;17.47;5.70;;;;;;;22.76;100.00;100830.72;5994636;23;20499;-90
2022/09/14 09:10:20;;;;;;;20.47;4.57;;;;;;;22.85;100.00;100826.34;5964912;23;20908;-91
2022/09/14 09:13:00;;;;;;;23.00;3.97;;;;;;;22.99;100.00;100835.88;5963212;23;20437;-90
2022/09/14 09:15:49;;;;;;;17.40;4.03;;;;;;;23.08;100.00;100819.47;6024514;23;20527;-90
2022/09/14 09:18:41;;;;;;;13.73;3.20;;;;;;;23.30;100.00;100836.78;6042315;23;20411;-90
2022/09/14 09:21:16;;;;;;;16.50;3.43;;;;;;;23.50;100.00;100849.06;5935097;24;20461;-90
2022/09/14 09:23:44;;;;;;;16.77;3.90;;;;;;;23.58;100.00;100841.03;6047367;23;20890;-90
2022/09/14 09:26:30;;;;;;;21.93;4.87;;;;;;;23.61;100.00;100834.06;6046843;23;20420;-90
2022/09/14 09:29:02;;;;;;;15.07;2.93;;;;;;;23.78;100.00;100845.78;6026610;23;20419;-90
2022/09/14 09:31:41;;;;;;;15.10;2.57;;;;;;;23.98;100.00;100840.19;6024264;23;20779;-90
2022/09/14 09:34:13;;;;;;;15.17;3.63;;;;;;;24.17;100.00;100853.59;6025855;23;20411;-90
2022/09/14 09:36:48;;;;;;;15.83;2.97;;;;;;;24.20;100.00;100859.44;6026458;23;20945;-91
2022/09/14 09:39:17;;;;;;;11.17;1.90;;;;;;;24.05;100.00;100862.28;6026823;23;20402;-90
2022/09/14 09:42:02;;;;;;;8.50;1.57;;;;;;;23.89;100.00;100858.63;6026221;23;20462;-91
2022/09/14 09:44:55;;;;;;;8.10;1.87;;;;;;;23.73;100.00;100865.31;6073097;23;20403;-90
2022/09/14 09:47:33;;;;;;;15.13;3.27;;;;;;;23.61;100.00;100867.56;6076862;23;20929;-90
2022/09/14 09:50:15;;;;;;;9.13;1.67;;;;;;;23.51;100.00;100868.34;6095731;23;20478;-90
2022/09/14 09:53:18;;;;;;;10.73;2.23;;;;;;;23.43;100.00;100866.09;6027685;23;20411;-90
2022/09/14 09:55:50;;;;;;;14.23;2.43;;;;;;;23.36;100.00;100871.09;6052644;23;20404;-90
2022/09/14 09:58:35;;;;;;;8.23;2.20;;;;;;;23.41;100.00;100879.50;6092085;23;20413;-90
2022/09/14 10:01:17;;;;;;;19.03;3.20;;;;;;;23.46;100.00;100875.88;6156422;23;20765;-90
2022/09/14 10:04:02;;;;;;;17.53;2.53;;;;;;;23.59;100.00;100878.16;6130898;23;20448;-90
2022/09/14 10:06:30;;;;;;;13.07;1.87;;;;;;;23.77;100.00;100886.00;6108104;23;20394;-90
2022/09/14 10:08:58;;;;;;;10.97;1.80;;;;;;;23.84;100.00;100883.78;6107804;23;20425;-90
2022/09/14 10:11:36;;;;;;;20.07;2.33;;;;;;;23.99;100.00;100896.88;6131426;23;20799;-90
2022/09/14 10:18:13;;;;;;;12.63;2.37;;;;;;;24.21;99.42;100883.47;6155224;23;20425;-90
2022/09/14 10:21:04;;;;;;;19.60;2.67;;;;;;;24.33;99.21;100891.56;6131818;23;20437;-89
2022/09/14 10:23:36;;;;;;;12.40;2.67;;;;;;;24.40;98.67;100890.19;6107975;23;20746;-89
2022/09/14 10:26:13;;;;;;;15.37;2.77;;;;;;;24.58;98.54;100905.50;6084090;23;20923;-89
2022/09/14 10:28:42;;;;;;;13.87;2.53;;;;;;;24.63;98.23;100885.09;6131359;23;20468;-90
2022/09/14 10:31:30;;;;;;;14.27;2.47;;;;;;;24.81;97.49;100894.84;6084272;23;20409;-90
2022/09/14 10:33:58;;;;;;;18.80;2.70;;;;;;;24.68;97.16;100899.88;6131524;23;20706;-87
2022/09/14 10:36:32;;;;;;;12.80;2.60;;;;;;;24.57;97.12;100898.25;6083402;23;20415;-88
2022/09/14 10:39:22;;;;;;;18.57;3.13;;;;;;;24.54;98.22;100903.56;6084406;23;20412;-88
2022/09/14 10:42:01;;;;;;;13.93;2.23;;;;;;;24.51;98.08;100899.38;6087312;23;20543;-88
2022/09/14 10:45:00;;;;;;;9.27;1.50;;;;;;;24.60;98.75;100894.88;6108523;23;20954;-88
2022/09/14 10:47:50;;;;;;;14.93;2.40;;;;;;;24.85;98.33;100899.53;6131344;23;20398;-88
2022/09/14 10:50:26;;;;;;;14.20;2.93;;;;;;;25.10;96.83;100893.06;6113839;23;20436;-88
2022/09/14 10:52:57;;;;;;;19.80;2.60;;;;;;;25.45;96.18;100892.84;6107023;23;20500;-87
2022/09/14 10:55:41;;;;;;;21.30;3.90;;;;;;;25.76;94.38;100887.09;6156398;23;20900;-88
2022/09/14 10:58:24;;;;;;;14.57;2.43;;;;;;;25.94;93.20;100888.34;6085025;23;20444;-87
2022/09/14 11:01:29;;;;;;;24.53;2.70;;;;;;;26.09;92.77;100896.63;6106827;23;20433;-87
2022/09/14 11:04:07;;;;;;;18.47;3.50;;;;;;;26.26;91.76;100891.41;6130952;23;20420;-88
2022/09/14 11:06:59;;;;;;;16.97;3.07;;;;;;;26.42;90.96;100890.16;6130807;23;20413;-87
2022/09/14 11:09:32;;;;;;;28.70;4.17;;;;;;;26.47;90.17;100892.06;6107028;23;20419;-87
2022/09/14 11:12:06;;;;;;;27.53;3.30;;;;;;;26.52;89.40;100899.59;6083504;23;20413;-87
2022/09/14 11:15:02;;;;;;;17.33;2.87;;;;;;;26.64;90.17;100892.44;6106852;23;20412;-87
2022/09/14 11:17:33;;;;;;;21.37;3.37;;;;;;;26.73;89.31;100885.06;6140421;23;20429;-87
2022/09/14 11:20:30;;;;;;;18.03;4.23;;;;;;;26.70;89.25;100885.66;6154900;23;20484;-87
2022/09/14 11:23:18;;;;;;;13.90;2.80;;;;;;;27.01;89.17;100894.56;6153451;23;20489;-87
2022/09/14 11:25:46;;;;;;;11.93;2.67;;;;;;;27.30;87.63;100888.03;6154880;23;20730;-88
2022/09/14 11:28:17;;;;;;;11.87;2.83;;;;;;;27.51;86.24;100883.78;6156091;23;20472;-87
2022/09/14 11:31:00;;;;;;;26.73;3.27;;;;;;;27.75;84.57;100890.16;6106791;23;20409;-87
2022/09/14 11:33:36;;;;;;;13.97;2.23;;;;;;;27.94;83.49;100876.09;6109374;23;20441;-87
2022/09/14 11:36:18;;;;;;;15.40;2.40;;;;;;;27.96;82.56;100876.63;6130362;23;20413;-87
2022/09/14 11:39:00;;;;;;;19.20;2.40;;;;;;;27.98;81.82;100888.38;6154850;23;20461;-87
2022/09/14 11:41:42;;;;;;;14.00;2.97;;;;;;;27.79;82.32;100879.16;6132812;23;20448;-87
2022/09/14 11:44:38;;;;;;;17.33;2.57;;;;;;;27.59;82.41;100879.47;6155015;23;20448;-88
2022/09/14 11:47:13;;;;;;;14.60;2.33;;;;;;;27.34;82.35;100883.44;6154246;23;20413;-88
2022/09/14 11:50:09;;;;;;;11.43;1.97;;;;;;;27.11;83.66;100888.84;6154141;23;20504;-87
2022/09/14 11:52:36;;;;;;;12.00;2.03;;;;;;;27.01;83.49;100883.34;6117491;23;20409;-87
2022/09/14 11:55:09;;;;;;;15.30;2.10;;;;;;;26.88;84.15;100883.19;6106285;23;20401;-88
2022/09/14 11:57:37;;;;;;;11.67;2.10;;;;;;;26.65;85.28;100874.50;6130446;23;20418;-87
2022/09/14 12:00:34;;;;;;;12.13;2.20;;;;;;;26.41;86.19;100873.63;6106012;23;20410;-88
2022/09/14 12:03:44;;;;;;;10.50;2.27;;;;;;;26.26;87.38;100880.19;6150660;23;20444;-87
2022/09/14 12:06:29;;;;;;;20.00;2.10;;;;;;;26.14;87.28;100883.41;6020879;23;20899;-88
2022/09/14 12:09:19;;;;;;;12.27;2.77;;;;;;;26.08;88.07;100884.56;6042443;23;20408;-88
2022/09/14 12:11:47;;;;;;;22.33;3.33;;;;;;;26.12;88.09;100896.88;6042165;23;20415;-87
2022/09/14 12:14:26;;;;;;;15.70;2.33;;;;;;;26.16;88.38;100897.13;6018744;23;20440;-87
2022/09/14 12:17:13;;;;;;;11.77;2.23;;;;;;;26.27;88.51;100887.47;6041527;23;20443;-87
2022/09/14 12:20:31;;;;;;;16.03;2.50;;;;;;;26.61;87.48;100904.25;6045929;23;20404;-86
2022/09/14 12:23:20;;;;;;;17.60;2.93;;;;;;;26.90;86.49;100893.00;6042197;23;20400;-87
2022/09/14 12:26:00;;;;;;;16.83;2.80;;;;;;;27.11;85.39;100879.56;6041958;23;20427;-87
2022/09/14 12:28:34;;;;;;;13.33;2.07;;;;;;;27.43;83.73;100876.03;6018389;23;20442;-88
2022/09/14 12:31:04;;;;;;;13.90;2.30;;;;;;;27.75;82.72;100880.91;6066745;23;20419;-88
2022/09/14 12:33:32;;;;;;;24.00;3.40;;;;;;;28.04;81.59;100877.91;6041655;23;20534;-87
2022/09/14 12:36:09;;;;;;;10.33;2.50;;;;;;;28.14;80.06;100886.97;6042058;23;20499;-87
2022/09/14 12:39:04;;;;;;;12.07;2.20;;;;;;;28.05;79.19;100888.84;6018873;23;20926;-87
2022/09/14 12:41:39;;;;;;;8.47;2.37;;;;;;;27.84;79.14;100884.69;6100479;23;20862;-88
2022/09/14 12:44:41;;;;;;;7.90;1.60;;;;;;;27.76;77.86;100879.75;6154879;23;20397;-88
2022/09/14 12:47:24;;;;;;;6.83;1.17;;;;;;;27.70;76.38;100886.63;6041681;23;20502;-87
2022/09/14 12:49:52;;;;;;;6.90;1.67;;;;;;;27.84;75.26;100879.06;6042159;23;20919;-88
2022/09/14 12:52:57;;;;;;;4.47;1.23;;;;;;;28.13;74.79;100890.94;5995302;23;20491;-88
2022/09/14 12:56:05;;;;;;;9.57;1.20;;;;;;;28.73;70.72;100888.16;5980067;24;20411;-88
2022/09/14 12:58:49;;;;;;;5.83;1.20;;;;;;;29.09;69.88;100890.25;5903197;24;20415;-87
2022/09/14 13:01:49;;;;;;;4.80;1.10;;;;;;;29.50;68.13;100888.22;5936675;24;20439;-87
2022/09/14 13:04:33;;;;;;;8.27;1.60;;;;;;;29.59;66.27;100893.13;5935035;24;20491;-88
2022/09/14 13:07:05;;;;;;;21.67;1.90;;;;;;;29.29;65.86;100884.19;5935460;24;20455;-88
2022/09/14 13:09:33;;;;;;;9.40;1.33;;;;;;;28.86;67.32;100890.16;5959638;24;20443;-88
2022/09/14 13:12:04;;;;;;;8.50;1.63;;;;;;;28.54;69.26;100890.22;5936479;24;20453;-88
2022/09/14 13:15:02;;;;;;;9.10;1.60;;;;;;;28.23;70.95;100889.97;5959292;24;20431;-87
2022/09/14 13:17:30;;;;;;;11.70;1.50;;;;;;;28.02;72.25;100894.22;5944101;24;20471;-87
2022/09/14 13:20:02;;;;;;;8.70;1.30;;;;;;;27.82;72.14;100896.25;5931596;24;20419;-87
2022/09/14 13:22:31;;;;;;;7.07;1.13;;;;;;;27.59;71.81;100885.91;5953110;23;20450;-88
2022/09/14 13:25:02;;;;;;;8.73;1.50;;;;;;;27.39;72.62;100891.81;6020646;23;20420;-87
2022/09/14 13:27:32;;;;;;;8.87;1.53;;;;;;;27.21;74.72;100884.19;6021232;23;20457;-88
2022/09/14 13:30:07;;;;;;;6.67;1.33;;;;;;;27.06;76.69;100890.84;6112810;23;20440;-88
2022/09/14 13:32:40;;;;;;;8.60;1.70;;;;;;;26.97;76.72;100890.69;6107659;23;20888;-88
2022/09/14 13:35:19;;;;;;;12.53;1.70;;;;;;;26.93;76.62;100894.38;6084782;23;20519;-87
2022/09/14 13:37:47;;;;;;;11.20;1.43;;;;;;;26.94;77.33;100890.44;6084369;23;20463;-87
2022/09/14 13:40:15;;;;;;;10.83;1.40;;;;;;;26.94;77.88;100882.00;6084533;23;20401;-87
2022/09/14 13:42:43;;;;;;;10.17;2.43;;;;;;;26.94;77.58;100890.44;6107862;23;20491;-88
2022/09/14 13:45:12;;;;;;;7.00;1.30;;;;;;;26.86;78.13;100877.06;6084129;23;20420;-87
2022/09/14 13:47:40;;;;;;;9.67;1.93;;;;;;;26.86;78.47;100885.47;6107633;23;20463;-88
2022/09/14 13:50:11;;;;;;;5.43;1.30;;;;;;;26.83;78.78;100889.69;6083769;23;20408;-88
2022/09/14 13:52:40;;;;;;;7.50;1.43;;;;;;;26.81;78.78;100886.38;6084953;23;20444;-87
2022/09/14 13:55:42;;;;;;;6.27;1.50;;;;;;;26.85;78.37;100887.44;6096248;23;20505;-87
2022/09/14 13:58:21;;;;;;;10.13;1.87;;;;;;;26.85;78.22;100870.59;6083855;23;20413;-87
2022/09/14 14:00:58;;;;;;;6.43;1.60;;;;;;;26.86;77.68;100891.09;6107786;23;20464;-88
2022/09/14 14:03:37;;;;;;;5.90;1.10;;;;;;;26.78;77.74;100876.56;6107361;23;20397;-88
2022/09/14 14:06:26;;;;;;;6.50;1.50;;;;;;;26.91;78.38;100879.81;6107495;23;20413;-88
2022/09/14 14:09:15;;;;;;;7.37;1.87;;;;;;;27.01;77.37;100886.16;6084370;23;20443;-87
2022/09/14 14:11:50;;;;;;;9.60;1.47;;;;;;;26.96;76.92;100876.94;6107228;23;20451;-87
2022/09/14 14:14:25;;;;;;;9.73;2.17;;;;;;;26.90;77.48;100878.97;6084489;23;20487;-88
2022/09/14 14:17:12;;;;;;;10.97;1.60;;;;;;;27.00;79.41;100872.41;6111175;23;20767;-88
2022/09/14 14:19:42;;;;;;;12.67;1.97;;;;;;;27.33;80.13;100865.78;6155229;23;20872;-88
2022/09/14 14:22:13;;;;;;;9.33;1.83;;;;;;;27.78;78.91;100869.88;6108108;23;20520;-88
2022/09/14 14:24:47;;;;;;;7.93;1.40;;;;;;;28.15;77.23;100866.16;6156981;23;20434;-88
2022/09/14 14:27:44;;;;;;;11.93;1.60;;;;;;;28.23;75.25;100861.00;6115428;23;20433;-88
2022/09/14 14:30:37;;;;;;;9.10;1.43;;;;;;;28.07;74.80;100866.06;6130990;23;20947;-88
2022/09/14 14:33:09;;;;;;;11.93;2.00;;;;;;;27.85;75.19;100866.69;6130074;23;20492;-88
2022/09/14 14:35:36;;;;;;;5.60;1.50;;;;;;;27.67;75.33;100864.75;6131341;23;20437;-88
2022/09/14 14:38:04;;;;;;;7.40;1.93;;;;;;;27.48;75.58;100861.91;6131319;23;20413;-88
2022/09/14 14:40:33;;;;;;;5.93;1.23;;;;;;;27.37;75.37;100872.44;6107347;23;20480;-87
2022/09/14 14:43:04;;;;;;;7.40;1.60;;;;;;;27.22;76.19;100864.25;6132379;23;20445;-89
2022/09/14 14:45:33;;;;;;;11.10;1.87;;;;;;;27.14;76.59;100873.34;6107125;23;20880;-89
2022/09/14 14:48:03;;;;;;;11.30;2.00;;;;;;;27.08;77.67;100866.16;6107765;23;20447;-89
2022/09/14 14:50:32;;;;;;;14.60;1.80;;;;;;;27.02;77.56;100865.38;6131084;23;20464;-89
2022/09/14 14:53:01;;;;;;;13.70;2.00;;;;;;;27.14;77.42;100859.31;6131251;23;20417;-89
2022/09/14 14:55:30;;;;;;;10.93;1.87;;;;;;;27.24;76.93;100866.75;6106889;23;20414;-89
2022/09/14 14:58:21;;;;;;;8.67;1.40;;;;;;;27.35;75.77;100874.72;6107517;23;20422;-89
2022/09/14 15:00:53;;;;;;;13.37;1.53;;;;;;;27.50;74.12;100854.88;6136286;23;20964;-89
2022/09/14 15:03:38;;;;;;;8.40;1.57;;;;;;;27.80;73.37;100855.53;6110419;23;20413;-89
2022/09/14 15:06:15;;;;;;;8.53;0.87;;;;;;;28.02;71.04;100866.97;6109381;23;20503;-89
2022/09/14 15:08:51;;;;;;;12.07;1.70;;;;;;;27.96;70.56;100858.91;6132792;23;20409;-89
2022/09/14 15:11:34;;;;;;;9.00;2.20;;;;;;;27.89;70.90;100862.16;6108737;23;20414;-89
2022/09/14 15:14:16;;;;;;;13.93;2.20;;;;;;;27.91;71.34;100853.38;6134636;23;20428;-89
2022/09/14 15:16:47;;;;;;;7.07;1.60;;;;;;;28.07;71.26;100850.03;6130211;23;20435;-89
2022/09/14 15:19:51;;;;;;;12.83;2.13;;;;;;;28.13;71.79;100861.97;6113286;23;20406;-89
2022/09/14 15:22:45;;;;;;;12.40;1.70;;;;;;;27.88;72.24;100854.84;6101044;23;20441;-88
2022/09/14 15:25:35;;;;;;;12.90;1.93;;;;;;;27.71;72.77;100866.63;6094483;23;20415;-89
2022/09/14 15:28:27;;;;;;;9.87;1.67;;;;;;;27.44;73.44;100855.25;6088471;23;20484;-89
2022/09/14 15:31:07;;;;;;;16.60;2.13;;;;;;;27.33;74.75;100868.56;6108940;23;20787;-89
2022/09/14 15:34:03;;;;;;;4.73;1.20;;;;;;;27.12;76.54;100864.41;6091700;23;20413;-89
2022/09/14 15:36:57;;;;;;;11.23;1.70;;;;;;;27.03;78.61;100860.59;6111842;23;20424;-88